Time;durP1;ratioP1;P1;durP2;ratioP2;P2;SDS_P1;SDS_P2;PMS_P1;PMS_P2;Temp;Humidity;BMP_temperature;BMP_pressure;BME280_temperature;BME280_humidity;BME280_pressure;Samples;Min_cycle;Max_cycle;Signal;HPM_P1;HPM_P2
2024/02/15 00:02:35;;;;;;;29.10;18.00;;;;;;;5.11;86.33;99897.13;444026;1254;139965;-55
2024/02/15 00:12:41;;;;;;;21.90;14.80;;;;;;;5.13;86.59;99901.42;437199;1256;140029;-58
2024/02/15 00:22:47;;;;;;;24.80;15.50;;;;;;;5.17;87.11;99902.83;441895;1255;140491;-55
2024/02/15 00:32:56;;;;;;;20.60;14.50;;;;;;;5.22;87.44;99909.23;439625;1256;140131;-56
2024/02/15 00:43:03;;;;;;;20.00;15.00;;;;;;;5.26;88.00;99911.69;440247;1254;139698;-57
2024/02/15 00:53:09;;;;;;;21.60;14.70;;;;;;;5.31;88.27;99909.41;438897;1254;139858;-55
2024/02/15 01:03:18;;;;;;;19.60;13.60;;;;;;;5.33;88.78;99913.16;439451;1256;139804;-55
2024/02/15 01:13:25;;;;;;;18.90;13.70;;;;;;;5.32;89.20;99909.39;443772;1253;140927;-55
2024/02/15 01:23:30;;;;;;;;;;;;;;;5.31;90.60;99911.50;438842;1252;140577;-56
2024/02/15 01:33:37;;;;;;;24.20;16.70;;;;;;;5.30;92.10;99909.98;440536;1255;126231;-57
2024/02/15 01:43:47;;;;;;;21.10;15.80;;;;;;;5.26;93.47;99892.95;443295;1254;139695;-57
2024/02/15 01:53:58;;;;;;;19.90;14.30;;;;;;;5.22;95.17;99882.02;439927;1254;139928;-60
2024/02/15 02:04:05;;;;;;;22.50;17.30;;;;;;;5.16;96.93;99879.79;444973;1254;141237;-60
2024/02/15 02:14:12;;;;;;;22.60;17.80;;;;;;;5.08;98.28;99871.40;440171;1254;140023;-56
2024/02/15 02:24:23;;;;;;;25.50;19.00;;;;;;;5.00;99.74;99863.86;438730;1254;139836;-60
2024/02/15 02:34:30;;;;;;;25.00;19.40;;;;;;;4.89;100.00;99871.73;441388;1251;140364;-58
2024/02/15 02:44:36;;;;;;;24.80;17.90;;;;;;;4.85;100.00;99876.55;445533;1254;140250;-57
2024/02/15 02:54:42;;;;;;;25.80;18.60;;;;;;;4.83;100.00;99871.08;438544;1255;140118;-56
2024/02/15 03:04:53;;;;;;;25.60;20.80;;;;;;;4.83;100.00;99875.91;438973;1256;140991;-60
2024/02/15 03:14:59;;;;;;;25.50;18.80;;;;;;;4.85;100.00;99878.10;445694;1253;140181;-60
2024/02/15 03:25:08;;;;;;;31.80;21.20;;;;;;;4.87;100.00;99875.95;441312;1255;140333;-56
2024/02/15 03:35:16;;;;;;;30.20;22.60;;;;;;;4.90;100.00;99877.92;441201;1251;139921;-57
2024/02/15 03:45:25;;;;;;;28.30;22.00;;;;;;;4.91;100.00;99879.30;441268;1253;139701;-56
2024/02/15 03:55:33;;;;;;;27.80;22.50;;;;;;;4.92;100.00;99882.39;439542;1252;141364;-56
2024/02/15 04:05:41;;;;;;;26.10;22.00;;;;;;;4.92;100.00;99878.73;442865;1252;140324;-56
2024/02/15 04:15:50;;;;;;;26.10;20.20;;;;;;;4.96;100.00;99876.31;439136;1253;140038;-54
2024/02/15 04:25:56;;;;;;;35.00;21.10;;;;;;;5.02;100.00;99878.56;451550;1252;139746;-57
2024/02/15 04:36:06;;;;;;;24.00;19.00;;;;;;;5.09;100.00;99875.33;443226;1252;139566;-57
2024/02/15 04:46:14;;;;;;;22.10;17.00;;;;;;;5.15;100.00;99871.30;439803;1256;140259;-60
2024/02/15 04:56:20;;;;;;;25.30;19.00;;;;;;;5.23;100.00;99876.91;440591;1256;139835;-56
2024/02/15 05:06:30;;;;;;;25.50;19.40;;;;;;;5.28;100.00;99868.58;440080;1252;139656;-57
2024/02/15 05:16:41;;;;;;;25.40;19.40;;;;;;;5.29;100.00;99877.91;439750;1256;139970;-57
2024/02/15 05:26:48;;;;;;;26.50;19.50;;;;;;;5.34;100.00;99882.23;444499;1251;140336;-57
2024/02/15 05:36:55;;;;;;;23.60;17.90;;;;;;;5.41;100.00;99879.01;441302;1254;140198;-60
2024/02/15 05:47:01;;;;;;;22.10;17.80;;;;;;;5.44;100.00;99887.61;439033;1256;141118;-59
2024/02/15 05:57:07;;;;;;;26.30;19.00;;;;;;;5.47;100.00;99899.29;439561;1253;140697;-56
2024/02/15 06:07:13;;;;;;;23.90;18.40;;;;;;;5.52;100.00;99911.80;440858;1256;140005;-56
2024/02/15 06:17:22;;;;;;;24.30;17.50;;;;;;;5.56;100.00;99910.60;439763;1255;140242;-60
2024/02/15 06:27:30;;;;;;;27.50;19.20;;;;;;;5.60;100.00;99920.00;441638;1251;140709;-60
2024/02/15 06:48:07;;;;;;;30.00;20.00;;;;;;;5.72;100.00;99922.33;443609;1254;140445;-62
2024/02/15 06:58:15;;;;;;;28.10;19.00;;;;;;;5.82;100.00;99926.45;441338;1252;139713;-56
2024/02/15 07:08:24;;;;;;;27.70;20.10;;;;;;;5.93;100.00;99930.70;447882;1252;140348;-63
2024/02/15 07:18:30;;;;;;;26.60;20.20;;;;;;;6.03;100.00;99940.42;440427;1252;139414;-60
2024/02/15 07:28:37;;;;;;;24.80;18.50;;;;;;;6.12;100.00;99949.99;440757;1253;140669;-60
2024/02/15 07:38:45;;;;;;;25.80;18.90;;;;;;;6.23;100.00;99954.23;438655;1253;140267;-59
2024/02/15 07:48:54;;;;;;;26.20;20.10;;;;;;;6.45;100.00;99951.61;441860;1253;139740;-63
2024/02/15 07:59:01;;;;;;;23.10;17.00;;;;;;;6.67;100.00;99947.41;440429;1253;140765;-61
2024/02/15 08:09:13;;;;;;;24.70;18.80;;;;;;;7.20;100.00;99939.25;439596;1256;140094;-71
2024/02/15 08:19:21;;;;;;;19.50;15.80;;;;;;;8.07;100.00;99933.85;446294;1253;140441;-59
2024/02/15 08:29:28;;;;;;;20.40;15.40;;;;;;;8.44;100.00;99935.39;444909;1253;140910;-63
2024/02/15 08:39:34;;;;;;;20.20;16.30;;;;;;;8.67;100.00;99933.42;440221;1256;139622;-64
2024/02/15 08:49:40;;;;;;;22.00;14.40;;;;;;;8.99;100.00;99940.72;443653;1251;139843;-60
2024/02/15 08:59:47;;;;;;;16.10;13.00;;;;;;;9.07;100.00;99946.41;439669;1256;139985;-63
2024/02/15 09:09:55;;;;;;;16.10;13.40;;;;;;;8.97;100.00;99951.48;439764;1253;140535;-62
2024/02/15 09:20:01;;;;;;;15.80;11.80;;;;;;;8.85;100.00;99958.17;439022;1251;140081;-59
2024/02/15 09:30:10;;;;;;;16.50;13.20;;;;;;;8.88;100.00;99958.56;441183;1255;140532;-60
2024/02/15 09:40:17;;;;;;;19.80;13.40;;;;;;;8.91;100.00;99958.02;439756;1256;140589;-65
2024/02/15 09:50:28;;;;;;;16.70;12.10;;;;;;;9.11;100.00;99963.47;447629;1252;140633;-62
2024/02/15 10:00:34;;;;;;;15.30;12.30;;;;;;;9.52;100.00;99961.19;439911;1253;141489;-63
2024/02/15 10:10:42;;;;;;;13.40;11.70;;;;;;;9.71;100.00;99950.17;441642;1257;140624;-64
2024/02/15 10:21:00;;;;;;;11.20;10.00;;;;;;;10.15;100.00;99948.10;438725;1254;140239;-58
2024/02/15 10:31:13;;;;;;;15.10;11.20;;;;;;;10.71;100.00;99938.67;439775;1253;140386;-60
2024/02/15 10:41:20;;;;;;;11.50;9.60;;;;;;;11.16;100.00;99925.69;441364;1253;140394;-59
2024/02/15 10:51:29;;;;;;;8.80;7.90;;;;;;;11.75;100.00;99916.77;439384;1254;140328;-64
2024/02/15 11:01:38;;;;;;;8.60;7.50;;;;;;;12.34;99.49;99917.90;439871;1253;140388;-63
2024/02/15 11:11:50;;;;;;;12.40;6.80;;;;;;;12.50;98.67;99906.02;442444;1256;140222;-60
2024/02/15 11:21:57;;;;;;;10.70;7.80;;;;;;;12.80;96.19;99899.97;451199;1250;140082;-61
2024/02/15 11:32:06;;;;;;;8.30;5.50;;;;;;;12.85;94.26;99893.94;440005;1256;139980;-61
2024/02/15 11:42:31;;;;;;;7.70;5.40;;;;;;;12.70;92.33;99895.20;443734;1256;140072;-68
2024/02/15 11:52:37;;;;;;;8.20;6.50;;;;;;;12.54;92.20;99885.85;438613;1254;140293;-64
2024/02/15 12:23:33;;;;;;;4.70;3.40;;;;;;;12.77;88.92;99870.50;439290;1256;140093;-66
2024/02/15 12:33:39;;;;;;;4.80;3.50;;;;;;;12.52;87.24;99866.14;439018;1252;141338;-63
2024/02/15 12:43:46;;;;;;;5.90;2.80;;;;;;;12.41;87.08;99863.92;442282;1253;139964;-65
2024/02/15 12:53:53;;;;;;;4.60;3.40;;;;;;;12.42;86.31;99855.07;440654;1256;140594;-60
2024/02/15 13:04:00;;;;;;;6.60;3.60;;;;;;;12.21;85.45;99845.98;438282;1256;139573;-65
2024/02/15 13:14:07;;;;;;;3.80;3.40;;;;;;;12.13;85.65;99845.45;438649;1256;140118;-57
2024/02/15 13:24:14;;;;;;;9.20;3.40;;;;;;;12.21;85.47;99847.34;442026;1253;139723;-64
2024/02/15 13:34:21;;;;;;;7.40;4.80;;;;;;;12.30;85.18;99846.39;445256;1253;139989;-63
2024/02/15 13:44:27;;;;;;;3.70;2.40;;;;;;;12.39;84.63;99839.80;437303;1256;140819;-66
2024/02/15 13:54:33;;;;;;;3.30;2.90;;;;;;;12.30;83.80;99836.54;437784;1253;139184;-64
2024/02/15 14:04:40;;;;;;;6.60;4.50;;;;;;;12.30;83.28;99833.94;440115;1256;140288;-66
2024/02/15 14:14:47;;;;;;;4.70;3.00;;;;;;;12.16;83.05;99839.24;438537;1253;140753;-58
2024/02/15 14:24:53;;;;;;;6.10;3.60;;;;;;;12.02;82.74;99839.60;442738;1255;140049;-58
2024/02/15 14:35:00;;;;;;;5.50;4.40;;;;;;;11.91;83.05;99839.48;451287;1253;140048;-69
2024/02/15 14:45:08;;;;;;;7.10;5.40;;;;;;;11.93;83.09;99846.67;441769;1254;140493;-64
2024/02/15 14:55:14;;;;;;;7.10;5.10;;;;;;;11.80;82.75;99846.80;451382;1254;139568;-63
2024/02/15 15:15:46;;;;;;;18.90;9.70;;;;;;;11.49;83.14;99846.86;440296;1255;139568;-65
2024/02/15 15:25:52;;;;;;;10.40;7.80;;;;;;;11.26;83.24;99848.80;439195;1256;140878;-66
2024/02/15 15:35:58;;;;;;;18.30;8.20;;;;;;;10.98;83.44;99857.20;438053;1256;141715;-64
2024/02/15 15:46:04;;;;;;;15.70;9.60;;;;;;;10.67;83.62;99862.73;437648;1255;139911;-61
2024/02/15 15:56:13;;;;;;;18.10;10.50;;;;;;;10.46;84.35;99868.52;437960;1256;140398;-61
2024/02/15 16:06:22;;;;;;;17.90;12.70;;;;;;;10.34;84.89;99880.70;437950;1256;140039;-60
2024/02/15 16:16:28;;;;;;;22.20;14.50;;;;;;;10.27;85.44;99882.89;437294;1256;140108;-58
2024/02/15 16:26:34;;;;;;;28.90;19.90;;;;;;;10.19;85.88;99891.75;437375;1256;141076;-56
2024/02/15 16:36:41;;;;;;;25.90;20.40;;;;;;;10.13;86.40;99896.66;437590;1254;140224;-58
2024/02/15 16:46:48;;;;;;;32.90;20.10;;;;;;;10.07;86.87;99897.85;437845;1257;140270;-61
2024/02/15 16:56:58;;;;;;;32.90;20.60;;;;;;;10.01;87.13;99903.64;437402;1256;139817;-62
2024/02/15 17:07:20;;;;;;;28.20;19.00;;;;;;;9.95;87.48;99914.80;445026;1256;140232;-53
2024/02/15 17:17:27;;;;;;;21.60;16.00;;;;;;;9.92;87.80;99922.14;437415;1254;140420;-52
2024/02/15 17:27:36;;;;;;;26.30;18.30;;;;;;;9.88;88.14;99932.82;442238;1256;139783;-53
2024/02/15 17:37:42;;;;;;;20.90;15.80;;;;;;;9.86;88.43;99943.25;438862;1255;143069;-52
2024/02/15 17:47:49;;;;;;;24.70;17.40;;;;;;;9.85;88.81;99944.35;440909;1255;139754;-49
2024/02/15 17:57:59;;;;;;;28.10;17.60;;;;;;;9.81;89.26;99950.70;437693;1256;139719;-57
2024/02/15 18:08:06;;;;;;;30.70;17.90;;;;;;;9.73;89.95;99948.00;439202;1257;140385;-58
2024/02/15 18:18:11;;;;;;;;;;;;;;;9.65;90.68;99945.96;443063;1254;140187;-61
2024/02/15 18:28:18;;;;;;;27.60;21.50;;;;;;;9.57;91.37;99944.33;437197;1256;126083;-53
2024/02/15 18:38:27;;;;;;;28.10;20.80;;;;;;;9.50;92.17;99947.83;438845;1256;408834;-59
2024/02/15 18:48:36;;;;;;;27.90;20.90;;;;;;;9.46;92.74;99943.69;437031;1256;139298;-58
2024/02/15 18:58:43;;;;;;;31.80;22.60;;;;;;;9.44;93.15;99939.27;437215;1256;140650;-61
2024/02/15 19:08:49;;;;;;;31.10;20.60;;;;;;;9.40;93.61;99931.06;437170;1257;140462;-61
2024/02/15 19:18:59;;;;;;;29.70;20.80;;;;;;;9.35;93.92;99924.36;437731;1254;140145;-58
2024/02/15 19:29:07;;;;;;;28.70;19.30;;;;;;;9.23;94.17;99924.42;441464;1254;142658;-58
2024/02/15 19:39:17;;;;;;;21.20;14.50;;;;;;;9.09;94.60;99913.11;447008;1251;140344;-64
2024/02/15 19:49:23;;;;;;;18.60;14.90;;;;;;;8.94;94.97;99911.09;439512;1254;140819;-63
2024/02/15 19:59:30;;;;;;;27.70;19.30;;;;;;;8.88;96.16;99911.60;437832;1256;140727;-56
2024/02/15 20:09:36;;;;;;;23.70;17.10;;;;;;;8.91;96.55;99923.13;437742;1256;140234;-58
2024/02/15 20:19:52;;;;;;;24.40;16.90;;;;;;;8.92;97.00;99935.48;437366;1256;140191;-59
2024/02/15 20:29:58;;;;;;;31.20;21.60;;;;;;;8.91;97.33;99938.13;437272;1254;139786;-57
2024/02/15 20:40:07;;;;;;;26.40;19.40;;;;;;;8.84;97.56;99932.20;437180;1254;139655;-65
2024/02/15 20:50:13;;;;;;;30.90;21.50;;;;;;;8.75;97.93;99928.66;442434;1251;140757;-65
2024/02/15 21:00:21;;;;;;;32.50;24.60;;;;;;;8.65;98.24;99922.67;441736;1254;140024;-66
2024/02/15 21:10:27;;;;;;;29.30;22.60;;;;;;;8.58;98.61;99916.96;438872;1253;139678;-58
2024/02/15 21:20:34;;;;;;;26.40;21.20;;;;;;;8.51;99.14;99916.75;437326;1255;140366;-64
2024/02/15 21:30:43;;;;;;;30.90;22.90;;;;;;;8.44;99.41;99914.48;438085;1253;139768;-58
2024/02/15 21:40:49;;;;;;;31.10;24.90;;;;;;;8.33;99.79;99909.42;437507;1253;139611;-58
2024/02/15 21:50:55;;;;;;;34.90;25.10;;;;;;;8.23;99.99;99907.96;437452;1251;140495;-58
2024/02/15 22:01:01;;;;;;;34.10;24.30;;;;;;;8.15;100.00;99904.73;437039;1256;139848;-58
2024/02/15 22:11:10;;;;;;;30.70;21.90;;;;;;;8.06;100.00;99909.17;437473;1251;139625;-58
2024/02/15 22:21:19;;;;;;;28.60;20.40;;;;;;;8.02;100.00;99914.73;440319;1252;139294;-58
2024/02/15 22:31:25;;;;;;;24.20;18.10;;;;;;;8.01;100.00;99918.30;438990;1256;139609;-57
2024/02/15 22:41:33;;;;;;;23.10;17.60;;;;;;;7.95;100.00;99923.13;437096;1253;140226;-57
2024/02/15 22:51:41;;;;;;;27.00;17.30;;;;;;;7.79;100.00;99921.96;441713;1250;139617;-57
2024/02/15 23:01:48;;;;;;;21.60;17.00;;;;;;;7.52;100.00;99919.88;443815;1253;140748;-56
2024/02/15 23:11:55;;;;;;;21.90;17.20;;;;;;;7.17;100.00;99920.71;438740;1256;140105;-58
2024/02/15 23:22:01;;;;;;;29.10;20.00;;;;;;;6.84;100.00;99920.42;437636;1252;140853;-59
2024/02/15 23:32:08;;;;;;;28.20;20.50;;;;;;;6.55;100.00;99919.02;437982;1256;139813;-57
2024/02/15 23:42:15;;;;;;;25.50;18.80;;;;;;;6.29;100.00;99926.02;438422;1252;140154;-57
2024/02/15 23:52:22;;;;;;;22.30;18.00;;;;;;;6.05;100.00;99918.63;444148;1252;139994;-65
